createdAt,value
2022-12-31T00:01:27.238Z,100.00
2022-12-31T00:04:00.154Z,100.00
2022-12-31T00:06:35.142Z,100.00
2022-12-31T00:09:09.327Z,100.00
2022-12-31T00:11:42.188Z,100.00
2022-12-31T00:14:15.062Z,100.00
2022-12-31T00:16:49.208Z,100.00
2022-12-31T00:19:22.187Z,100.00
2022-12-31T00:21:54.941Z,100.00
2022-12-31T00:24:30.945Z,100.00
2022-12-31T00:27:04.001Z,100.00
2022-12-31T00:29:36.835Z,100.00
2022-12-31T00:32:11.039Z,100.00
2022-12-31T00:34:44.136Z,100.00
2022-12-31T00:37:17.056Z,100.00
2022-12-31T00:39:49.857Z,100.00
2022-12-31T00:42:22.655Z,100.00
2022-12-31T00:44:55.473Z,100.00
2022-12-31T00:47:29.922Z,100.00
2022-12-31T00:50:02.774Z,100.00
2022-12-31T00:52:35.630Z,100.00
2022-12-31T00:55:09.522Z,100.00
2022-12-31T00:57:42.438Z,100.00
2022-12-31T01:00:16.918Z,100.00
2022-12-31T01:02:51.311Z,100.00
2022-12-31T01:05:24.305Z,100.00
2022-12-31T01:07:57.188Z,100.00
2022-12-31T01:10:47.329Z,100.00
2022-12-31T01:13:20.079Z,100.00
2022-12-31T01:15:52.932Z,100.00
2022-12-31T01:18:27.085Z,100.00
2022-12-31T01:21:03.219Z,100.00
2022-12-31T01:23:36.762Z,100.00
2022-12-31T01:26:11.832Z,100.00
2022-12-31T01:28:44.925Z,100.00
2022-12-31T01:31:20.325Z,100.00
2022-12-31T01:33:55.075Z,100.00
2022-12-31T01:36:30.533Z,100.00
2022-12-31T01:39:05.771Z,100.00
2022-12-31T01:41:40.999Z,100.00
2022-12-31T01:44:52.981Z,100.00
2022-12-31T01:47:37.352Z,100.00
2022-12-31T01:50:17.191Z,100.00
2022-12-31T01:52:54.305Z,100.00
2022-12-31T01:55:31.390Z,100.00
2022-12-31T01:58:10.153Z,100.00
2022-12-31T02:00:43.959Z,100.00
2022-12-31T02:03:17.119Z,100.00
2022-12-31T02:05:57.787Z,100.00
2022-12-31T02:08:30.561Z,100.00
2022-12-31T02:11:03.477Z,100.00
2022-12-31T02:13:36.287Z,100.00
2022-12-31T02:16:16.133Z,100.00
2022-12-31T02:18:57.023Z,100.00
2022-12-31T02:21:47.740Z,100.00
2022-12-31T02:24:58.647Z,100.00
2022-12-31T02:27:46.190Z,100.00
2022-12-31T02:30:22.409Z,100.00
2022-12-31T02:33:09.382Z,100.00
2022-12-31T02:35:49.864Z,100.00
2022-12-31T02:38:25.732Z,100.00
2022-12-31T02:40:59.441Z,100.00
2022-12-31T02:43:32.232Z,100.00
2022-12-31T02:46:26.959Z,100.00
2022-12-31T02:49:08.554Z,100.00
2022-12-31T02:51:47.433Z,100.00
2022-12-31T02:54:33.082Z,100.00
2022-12-31T02:57:12.951Z,100.00
2022-12-31T03:00:11.589Z,100.00
2022-12-31T03:02:48.179Z,100.00
2022-12-31T03:05:25.462Z,100.00
2022-12-31T03:07:58.252Z,100.00
2022-12-31T03:10:31.105Z,100.00
2022-12-31T03:13:03.182Z,100.00
2022-12-31T03:15:36.112Z,100.00
2022-12-31T03:18:12.593Z,100.00
2022-12-31T03:21:17.058Z,100.00
2022-12-31T03:24:07.365Z,100.00
2022-12-31T03:26:40.173Z,100.00
2022-12-31T03:29:12.982Z,100.00
2022-12-31T03:31:45.743Z,100.00
2022-12-31T03:34:19.872Z,100.00
2022-12-31T03:36:52.716Z,100.00
2022-12-31T03:39:25.587Z,100.00
2022-12-31T03:41:58.451Z,100.00
2022-12-31T03:44:31.369Z,100.00
2022-12-31T03:47:04.254Z,100.00
2022-12-31T03:49:38.459Z,100.00
2022-12-31T03:52:11.217Z,100.00
2022-12-31T03:54:44.661Z,100.00
2022-12-31T03:57:17.554Z,100.00
2022-12-31T03:59:50.364Z,100.00
2022-12-31T04:02:28.497Z,100.00
2022-12-31T04:05:03.708Z,100.00
2022-12-31T04:07:36.496Z,100.00
2022-12-31T04:10:12.496Z,100.00
2022-12-31T04:12:46.186Z,100.00
2022-12-31T04:15:20.864Z,100.00
2022-12-31T04:17:53.615Z,100.00
2022-12-31T04:20:27.784Z,100.00
2022-12-31T04:23:00.575Z,100.00
2022-12-31T04:25:33.605Z,100.00
2022-12-31T04:28:06.433Z,100.00
2022-12-31T04:30:39.165Z,100.00
2022-12-31T04:33:12.044Z,100.00
2022-12-31T04:35:46.280Z,100.00
2022-12-31T04:38:19.187Z,100.00
2022-12-31T04:41:09.751Z,100.00
2022-12-31T04:43:42.486Z,100.00
2022-12-31T04:46:16.212Z,100.00
2022-12-31T04:48:49.101Z,100.00
2022-12-31T04:51:24.074Z,100.00
2022-12-31T04:53:57.273Z,100.00
2022-12-31T04:56:31.130Z,100.00
2022-12-31T04:59:04.410Z,100.00
2022-12-31T05:01:39.017Z,100.00
2022-12-31T05:04:11.825Z,100.00
2022-12-31T05:06:45.981Z,100.00
2022-12-31T05:09:19.100Z,100.00
2022-12-31T05:11:52.476Z,100.00
2022-12-31T05:14:25.335Z,100.00
2022-12-31T05:16:59.608Z,100.00
2022-12-31T05:19:32.836Z,100.00
2022-12-31T05:22:24.155Z,100.00
2022-12-31T05:24:57.635Z,100.00
2022-12-31T05:27:32.169Z,100.00
2022-12-31T05:30:05.491Z,100.00
2022-12-31T05:32:39.100Z,100.00
2022-12-31T05:35:12.134Z,100.00
2022-12-31T05:37:46.386Z,100.00
2022-12-31T05:40:20.021Z,100.00
2022-12-31T05:42:52.796Z,100.00
2022-12-31T05:45:30.637Z,100.00
2022-12-31T05:48:04.128Z,100.00
2022-12-31T05:50:36.905Z,100.00
2022-12-31T05:53:11.643Z,100.00
2022-12-31T05:55:47.173Z,100.00
2022-12-31T05:58:20.129Z,100.00
2022-12-31T06:00:53.529Z,100.00
2022-12-31T06:03:26.398Z,100.00
2022-12-31T06:05:59.252Z,100.00
2022-12-31T06:08:33.683Z,100.00
2022-12-31T06:11:06.613Z,100.00
2022-12-31T06:13:39.339Z,100.00
2022-12-31T06:16:12.548Z,100.00
2022-12-31T06:18:47.890Z,100.00
2022-12-31T06:21:21.868Z,100.00
2022-12-31T06:23:56.150Z,100.00
2022-12-31T06:26:30.541Z,100.00
2022-12-31T06:29:03.353Z,100.00
2022-12-31T06:31:36.195Z,100.00
2022-12-31T06:34:08.955Z,100.00
2022-12-31T06:36:41.735Z,100.00
2022-12-31T06:39:15.939Z,100.00
2022-12-31T06:41:48.680Z,100.00
2022-12-31T06:44:22.483Z,100.00
2022-12-31T06:46:55.419Z,100.00
2022-12-31T06:49:28.316Z,100.00
2022-12-31T06:52:01.107Z,100.00
2022-12-31T06:54:35.765Z,100.00
2022-12-31T06:57:10.493Z,100.00
2022-12-31T06:59:44.815Z,100.00
2022-12-31T07:02:39.660Z,99.89
2022-12-31T07:05:35.589Z,100.00
2022-12-31T07:08:25.983Z,99.58
2022-12-31T07:11:04.525Z,99.28
2022-12-31T07:14:01.233Z,99.92
2022-12-31T07:16:48.742Z,100.00
2022-12-31T07:19:34.102Z,99.86
2022-12-31T07:22:14.901Z,99.77
2022-12-31T07:24:48.239Z,99.44
2022-12-31T07:27:37.074Z,99.67
2022-12-31T07:30:15.033Z,100.00
2022-12-31T07:33:10.241Z,100.00
2022-12-31T07:35:51.687Z,99.50
2022-12-31T07:38:31.005Z,99.45
2022-12-31T07:41:13.101Z,98.39
2022-12-31T07:44:01.962Z,98.29
2022-12-31T07:46:46.996Z,98.32
2022-12-31T07:49:20.313Z,98.37
2022-12-31T07:51:54.043Z,97.86
2022-12-31T07:54:26.835Z,96.61
2022-12-31T07:56:59.613Z,96.44
2022-12-31T07:59:45.160Z,96.62
2022-12-31T08:02:31.791Z,96.42
2022-12-31T08:05:14.860Z,96.93
2022-12-31T08:07:56.798Z,96.99
2022-12-31T08:10:38.813Z,96.66
2022-12-31T08:13:12.931Z,97.26
2022-12-31T08:15:47.620Z,98.03
2022-12-31T08:18:20.805Z,98.39
2022-12-31T08:21:05.584Z,98.58
2022-12-31T08:23:46.181Z,99.14
2022-12-31T08:26:28.585Z,99.24
2022-12-31T08:29:13.431Z,99.51
2022-12-31T08:31:56.668Z,99.00
2022-12-31T08:34:36.602Z,98.86
2022-12-31T08:37:14.376Z,98.52
2022-12-31T08:40:03.820Z,98.20
2022-12-31T08:42:45.421Z,99.03
2022-12-31T08:45:26.970Z,98.72
2022-12-31T08:48:11.710Z,98.81
2022-12-31T08:50:44.994Z,98.83
2022-12-31T08:53:18.385Z,98.99
2022-12-31T08:55:56.852Z,98.52
2022-12-31T08:58:42.042Z,98.10
2022-12-31T09:01:19.061Z,97.67
2022-12-31T09:04:07.809Z,97.89
2022-12-31T09:06:48.649Z,97.29
2022-12-31T09:09:34.124Z,96.74
2022-12-31T09:12:14.597Z,96.73
2022-12-31T09:14:49.221Z,95.40
2022-12-31T09:17:41.276Z,95.21
2022-12-31T09:20:21.734Z,94.23
2022-12-31T09:22:55.912Z,93.82
2022-12-31T09:25:30.129Z,93.29
2022-12-31T09:28:15.593Z,93.78
2022-12-31T09:30:56.682Z,92.83
2022-12-31T09:33:41.449Z,92.91
2022-12-31T09:36:22.043Z,92.86
2022-12-31T09:39:05.047Z,92.45
2022-12-31T09:41:55.855Z,93.04
2022-12-31T09:45:00.654Z,93.25
2022-12-31T09:48:36.531Z,93.27
2022-12-31T09:51:28.624Z,92.47
2022-12-31T09:54:28.789Z,92.87
2022-12-31T09:57:28.516Z,92.92
2022-12-31T10:00:04.736Z,92.62
2022-12-31T10:03:01.574Z,91.36
2022-12-31T10:06:00.574Z,91.37
2022-12-31T10:08:49.086Z,90.91
2022-12-31T10:11:33.644Z,90.67
2022-12-31T10:14:19.203Z,89.55
2022-12-31T10:17:09.586Z,88.78
2022-12-31T10:20:03.451Z,88.49
2022-12-31T10:23:05.168Z,88.77
2022-12-31T10:25:57.867Z,89.34
2022-12-31T10:28:36.289Z,88.47
2022-12-31T10:31:15.957Z,87.61
2022-12-31T10:34:03.707Z,87.29
2022-12-31T10:36:58.982Z,88.53
2022-12-31T10:39:50.916Z,88.25
2022-12-31T10:42:58.589Z,87.91
2022-12-31T10:46:00.859Z,88.62
2022-12-31T10:49:03.871Z,87.73
2022-12-31T10:52:11.511Z,88.18
2022-12-31T10:55:09.524Z,87.86
2022-12-31T10:58:12.719Z,87.20
2022-12-31T11:00:54.584Z,87.66
2022-12-31T11:04:21.170Z,86.28
2022-12-31T11:07:39.672Z,85.28
2022-12-31T11:10:57.391Z,85.18
2022-12-31T11:13:59.140Z,85.10
2022-12-31T11:16:44.285Z,84.47
2022-12-31T11:19:25.736Z,84.92
2022-12-31T11:22:23.162Z,85.26
2022-12-31T11:25:14.149Z,85.42
2022-12-31T11:27:58.958Z,84.16
2022-12-31T11:30:45.702Z,81.99
2022-12-31T11:33:25.747Z,82.05
2022-12-31T11:36:13.645Z,81.56
2022-12-31T11:38:52.353Z,80.05
2022-12-31T11:41:34.397Z,81.17
2022-12-31T11:44:19.407Z,80.56
2022-12-31T11:47:17.695Z,80.36
2022-12-31T11:50:03.965Z,79.54
2022-12-31T11:52:51.286Z,79.46
2022-12-31T11:55:35.960Z,80.21
2022-12-31T11:58:14.395Z,80.78
2022-12-31T12:00:55.550Z,80.94
2022-12-31T12:03:30.238Z,80.12
2022-12-31T12:06:03.834Z,79.21
2022-12-31T12:08:37.316Z,79.46
2022-12-31T12:11:19.900Z,79.57
2022-12-31T12:13:52.826Z,79.18
2022-12-31T12:16:27.782Z,79.37
2022-12-31T12:19:08.889Z,80.42
2022-12-31T12:21:47.091Z,80.42
2022-12-31T12:24:22.562Z,80.42
2022-12-31T12:26:55.711Z,80.21
2022-12-31T12:29:32.516Z,80.21
2022-12-31T12:32:07.929Z,80.35
2022-12-31T12:34:49.122Z,79.59
2022-12-31T12:37:32.371Z,79.24
2022-12-31T12:40:09.410Z,79.30
2022-12-31T12:42:47.906Z,79.00
2022-12-31T12:45:23.658Z,78.94
2022-12-31T12:47:58.958Z,78.88
2022-12-31T12:50:42.381Z,78.11
2022-12-31T12:53:33.407Z,78.19
2022-12-31T12:56:16.202Z,78.89
2022-12-31T12:59:00.273Z,78.29
2022-12-31T13:01:40.107Z,79.07
2022-12-31T13:04:42.747Z,79.17
2022-12-31T13:07:32.424Z,78.42
2022-12-31T13:10:18.623Z,78.24
2022-12-31T13:13:23.280Z,78.70
2022-12-31T13:15:57.776Z,78.32
2022-12-31T13:18:44.739Z,78.78
2022-12-31T13:21:31.637Z,78.56
2022-12-31T13:24:19.249Z,77.26
2022-12-31T13:26:58.424Z,78.16
2022-12-31T13:29:34.095Z,78.90
2022-12-31T13:32:10.946Z,79.22
2022-12-31T13:34:48.467Z,80.36
2022-12-31T13:37:28.578Z,80.73
2022-12-31T13:40:08.216Z,80.68
2022-12-31T13:42:49.822Z,80.80
2022-12-31T13:45:27.648Z,81.18
2022-12-31T13:48:07.161Z,82.15
2022-12-31T13:50:45.661Z,81.96
2022-12-31T13:53:26.716Z,82.00
2022-12-31T13:56:06.643Z,81.64
2022-12-31T13:58:44.688Z,81.16
2022-12-31T14:01:23.072Z,81.13
2022-12-31T14:04:03.920Z,81.40
2022-12-31T14:06:46.506Z,81.32
2022-12-31T14:09:25.944Z,81.29
2022-12-31T14:12:23.005Z,81.07
2022-12-31T14:15:04.741Z,82.00
2022-12-31T14:17:46.757Z,81.44
2022-12-31T14:20:28.981Z,81.18
2022-12-31T14:23:10.803Z,81.53
2022-12-31T14:25:48.489Z,81.32
2022-12-31T14:28:27.927Z,81.66
2022-12-31T14:31:14.068Z,81.46
2022-12-31T14:33:54.594Z,80.64
2022-12-31T14:36:32.038Z,80.87
2022-12-31T14:39:30.774Z,80.87
2022-12-31T14:42:16.944Z,81.18
2022-12-31T14:45:02.857Z,80.85
2022-12-31T14:47:48.238Z,81.45
2022-12-31T14:50:26.211Z,81.22
2022-12-31T14:53:08.821Z,80.92
2022-12-31T14:55:42.360Z,81.43
2022-12-31T14:58:28.187Z,81.24
2022-12-31T15:01:08.645Z,81.28
2022-12-31T15:03:46.234Z,80.62
2022-12-31T15:06:56.877Z,79.94
2022-12-31T15:09:57.650Z,79.96
2022-12-31T15:12:48.471Z,80.29
2022-12-31T15:15:33.509Z,80.99
2022-12-31T15:18:24.496Z,81.61
2022-12-31T15:21:38.647Z,82.17
2022-12-31T15:24:20.071Z,81.85
2022-12-31T15:26:55.284Z,81.36
2022-12-31T15:29:32.037Z,81.92
2022-12-31T15:32:08.814Z,81.52
2022-12-31T15:34:42.933Z,81.47
2022-12-31T15:37:35.439Z,80.88
2022-12-31T15:40:19.477Z,80.85
2022-12-31T15:42:56.559Z,81.34
2022-12-31T15:45:34.895Z,81.22
2022-12-31T15:48:11.276Z,81.09
2022-12-31T15:50:47.214Z,80.74
2022-12-31T15:53:29.728Z,80.42
2022-12-31T15:56:03.575Z,79.85
2022-12-31T15:58:37.675Z,80.23
2022-12-31T16:01:16.380Z,80.07
2022-12-31T16:03:56.253Z,79.88
2022-12-31T16:06:32.484Z,78.94
2022-12-31T16:09:09.206Z,78.92
2022-12-31T16:11:44.446Z,78.97
2022-12-31T16:14:21.395Z,79.30
2022-12-31T16:16:56.900Z,78.79
2022-12-31T16:19:33.948Z,79.16
2022-12-31T16:22:16.395Z,78.78
2022-12-31T16:25:29.296Z,78.90
2022-12-31T16:27:49.485Z,79.28
2022-12-31T16:30:23.929Z,79.40
2022-12-31T16:33:00.590Z,79.52
2022-12-31T16:35:36.247Z,79.32
2022-12-31T16:38:15.361Z,79.41
2022-12-31T16:41:08.589Z,79.23
2022-12-31T16:43:43.273Z,78.41
2022-12-31T16:46:20.714Z,78.36
2022-12-31T16:48:56.792Z,78.47
2022-12-31T16:51:33.522Z,78.18
2022-12-31T16:54:19.651Z,78.63
2022-12-31T16:56:53.333Z,77.70
2022-12-31T16:59:33.470Z,78.11
2022-12-31T17:02:16.896Z,78.60
2022-12-31T17:04:55.632Z,78.49
2022-12-31T17:07:41.016Z,78.02
2022-12-31T17:10:20.487Z,77.99
2022-12-31T17:15:52.518Z,78.33
2022-12-31T17:18:28.071Z,78.22
2022-12-31T17:21:08.683Z,77.96
2022-12-31T17:23:42.919Z,78.04
2022-12-31T17:26:25.874Z,77.97
2022-12-31T17:29:01.420Z,78.37
2022-12-31T17:31:36.781Z,78.71
2022-12-31T17:34:24.134Z,79.11
2022-12-31T17:37:00.805Z,79.10
2022-12-31T17:40:24.462Z,79.34
2022-12-31T17:42:56.772Z,79.36
2022-12-31T17:45:29.731Z,78.73
2022-12-31T17:48:02.805Z,78.97
2022-12-31T17:50:35.713Z,79.17
2022-12-31T17:53:12.914Z,79.92
2022-12-31T17:55:48.266Z,80.13
2022-12-31T17:58:29.898Z,80.41
2022-12-31T18:01:03.793Z,81.28
2022-12-31T18:03:36.970Z,81.54
2022-12-31T18:06:14.628Z,82.26
2022-12-31T18:08:49.777Z,82.65
2022-12-31T18:11:24.965Z,83.00
2022-12-31T18:13:59.117Z,82.87
2022-12-31T18:16:31.969Z,83.05
2022-12-31T18:19:23.497Z,83.43
2022-12-31T18:22:06.695Z,83.65
2022-12-31T18:24:39.438Z,82.92
2022-12-31T18:27:17.417Z,83.12
2022-12-31T18:29:51.577Z,83.37
2022-12-31T18:32:26.706Z,82.67
2022-12-31T18:34:59.542Z,82.74
2022-12-31T18:37:34.638Z,83.36
2022-12-31T18:40:08.332Z,83.48
2022-12-31T18:42:41.220Z,82.79
2022-12-31T18:45:17.263Z,83.33
2022-12-31T18:47:50.039Z,83.22
2022-12-31T18:50:22.771Z,83.30
2022-12-31T18:52:55.551Z,82.91
2022-12-31T18:55:34.688Z,82.87
2022-12-31T18:58:08.114Z,82.20
2022-12-31T19:00:42.827Z,82.94
2022-12-31T19:03:17.142Z,82.30
2022-12-31T19:05:51.930Z,82.46
2022-12-31T19:08:25.255Z,82.25
2022-12-31T19:10:58.019Z,82.30
2022-12-31T19:13:30.840Z,82.81
2022-12-31T19:16:05.067Z,82.76
2022-12-31T19:18:38.223Z,82.93
2022-12-31T19:21:16.144Z,82.81
2022-12-31T19:23:49.768Z,82.83
2022-12-31T19:26:23.466Z,82.78
2022-12-31T19:28:56.417Z,82.96
2022-12-31T19:31:30.565Z,82.99
2022-12-31T19:34:03.309Z,83.41
2022-12-31T19:36:40.208Z,83.50
2022-12-31T19:39:18.169Z,84.32
2022-12-31T19:41:58.451Z,84.62
2022-12-31T19:44:31.800Z,84.81
2022-12-31T19:47:06.000Z,85.04
2022-12-31T19:49:38.718Z,85.65
2022-12-31T19:52:11.809Z,85.10
2022-12-31T19:54:44.519Z,85.02
2022-12-31T19:57:17.286Z,85.07
2022-12-31T19:59:50.009Z,84.97
2022-12-31T20:02:24.266Z,84.41
2022-12-31T20:04:57.149Z,84.64
2022-12-31T20:07:30.074Z,84.46
2022-12-31T20:10:03.665Z,84.78
2022-12-31T20:12:42.181Z,84.21
2022-12-31T20:15:16.983Z,84.68
2022-12-31T20:17:51.079Z,84.15
2022-12-31T20:20:24.296Z,84.97
2022-12-31T20:22:57.680Z,85.08
2022-12-31T20:25:30.423Z,84.93
2022-12-31T20:28:03.126Z,84.67
2022-12-31T20:30:38.605Z,84.60
2022-12-31T20:33:18.766Z,85.00
2022-12-31T20:35:51.760Z,84.60
2022-12-31T20:38:24.826Z,84.58
2022-12-31T20:41:04.183Z,84.31
2022-12-31T20:43:37.620Z,84.56
2022-12-31T20:46:15.185Z,84.25
2022-12-31T20:48:51.356Z,84.50
2022-12-31T20:51:25.133Z,84.17
2022-12-31T20:53:59.910Z,83.53
2022-12-31T20:56:34.528Z,83.48
2022-12-31T20:59:08.408Z,83.98
2022-12-31T21:02:19.521Z,83.78
2022-12-31T21:04:35.348Z,83.73
2022-12-31T21:07:08.353Z,84.18
2022-12-31T21:09:41.131Z,83.89
2022-12-31T21:12:36.650Z,83.66
2022-12-31T21:15:10.458Z,83.55
2022-12-31T21:17:43.669Z,83.52
2022-12-31T21:20:18.714Z,83.80
2022-12-31T21:22:51.666Z,83.60
2022-12-31T21:25:24.476Z,83.68
2022-12-31T21:27:57.239Z,83.54
2022-12-31T21:30:30.013Z,84.12
2022-12-31T21:33:03.045Z,84.38
2022-12-31T21:35:43.785Z,84.30
2022-12-31T21:38:21.298Z,84.40
2022-12-31T21:40:54.415Z,84.22
2022-12-31T21:43:27.187Z,84.13
2022-12-31T21:46:04.509Z,84.23
2022-12-31T21:48:37.327Z,84.93
2022-12-31T21:51:14.223Z,84.03
2022-12-31T21:53:47.006Z,84.32
2022-12-31T21:56:21.192Z,84.06
2022-12-31T21:59:13.603Z,84.53
2022-12-31T22:02:04.092Z,85.11
2022-12-31T22:05:01.928Z,85.39
2022-12-31T22:07:31.132Z,85.40
2022-12-31T22:10:04.059Z,84.70
2022-12-31T22:12:36.866Z,84.42
2022-12-31T22:15:15.964Z,84.22
2022-12-31T22:17:48.993Z,84.06
2022-12-31T22:20:29.526Z,83.53
2022-12-31T22:23:04.089Z,82.53
2022-12-31T22:25:38.375Z,82.50
2022-12-31T22:28:37.715Z,82.04
2022-12-31T22:31:03.879Z,82.20
2022-12-31T22:33:36.762Z,81.97
2022-12-31T22:36:13.461Z,82.35
2022-12-31T22:38:47.789Z,81.71
2022-12-31T22:41:22.738Z,82.64
2022-12-31T22:44:03.213Z,83.18
2022-12-31T22:46:37.144Z,83.90
2022-12-31T22:49:11.401Z,84.51
2022-12-31T22:51:58.739Z,84.38
2022-12-31T22:54:34.946Z,85.01
2022-12-31T22:57:07.730Z,85.48
2022-12-31T22:59:40.516Z,85.61
2022-12-31T23:02:13.252Z,85.66
2022-12-31T23:04:46.123Z,86.64
2022-12-31T23:07:18.943Z,86.93
2022-12-31T23:10:10.600Z,86.15
2022-12-31T23:12:43.424Z,87.40
2022-12-31T23:15:33.694Z,87.11
2022-12-31T23:18:24.075Z,87.28
2022-12-31T23:21:14.576Z,87.36
2022-12-31T23:23:47.187Z,87.49
2022-12-31T23:26:21.257Z,87.47
2022-12-31T23:28:54.037Z,87.36
2022-12-31T23:31:28.851Z,86.98
2022-12-31T23:34:01.722Z,87.04
2022-12-31T23:36:34.512Z,86.42
2022-12-31T23:39:07.330Z,85.44
2022-12-31T23:41:41.811Z,85.44
2022-12-31T23:44:14.693Z,85.12
2022-12-31T23:46:47.462Z,84.69
2022-12-31T23:49:20.270Z,84.49
2022-12-31T23:51:53.615Z,84.89
2022-12-31T23:54:26.382Z,86.45
2022-12-31T23:57:00.562Z,87.59
2022-12-31T23:59:33.293Z,88.08
